AFL1405 ULLI-UIII
Flight info
| Callsign | AFL1405 |
|---|---|
| Flight time | N/A |
| Altitude | 35000 |
| Route | KERIS1A KERIS P989 LUPOK L260 ROLUG T635 SADER T580 LITUN N869 KUMOD R497 UTIMA/K0846F370 R497 RO A817 RUSAM G490 NH NH5B |
| Aircraft | A320/M-SDE3FGHIRWY/LB1 |
Departure
| Time | 2026-05-05 09:34 |
|---|---|
| Airport | Pulkovo Airport (ULLI) |
Arrival
| Time | N/A |
|---|---|
| Airport | Irkutsk International Airport (UIII) |
| Time | Latitude | Longitude | Altitude | Speed | Heading |
|---|---|---|---|---|---|
| 2026-05-05 09:10 | 59.79815 | 30.26656 | 82 ft | 0 kts | 107° |
| 2026-05-05 09:23 | 59.79816 | 30.26644 | 83 ft | 3 kts | 107° |
| 2026-05-05 09:24 | 59.79822 | 30.26602 | 84 ft | 3 kts | 98° |
| 2026-05-05 09:24 | 59.79821 | 30.26562 | 85 ft | 3 kts | 60° |
| 2026-05-05 09:24 | 59.79808 | 30.26533 | 87 ft | 3 kts | 20° |
| 2026-05-05 09:24 | 59.79799 | 30.26528 | 86 ft | 0 kts | 17° |
| 2026-05-05 09:26 | 59.79802 | 30.26529 | 86 ft | 2 kts | 17° |
| 2026-05-05 09:27 | 59.79832 | 30.26547 | 86 ft | 7 kts | 17° |
| 2026-05-05 09:27 | 59.79894 | 30.26582 | 84 ft | 11 kts | 17° |
| 2026-05-05 09:27 | 59.79975 | 30.26629 | 85 ft | 11 kts | 16° |
| 2026-05-05 09:27 | 59.80044 | 30.26671 | 88 ft | 10 kts | 17° |
| 2026-05-05 09:28 | 59.80102 | 30.26707 | 84 ft | 8 kts | 17° |
| 2026-05-05 09:28 | 59.80149 | 30.26735 | 87 ft | 7 kts | 15° |
| 2026-05-05 09:28 | 59.80205 | 30.26766 | 84 ft | 9 kts | 16° |
| 2026-05-05 09:28 | 59.80257 | 30.26798 | 87 ft | 7 kts | 17° |
| 2026-05-05 09:29 | 59.80298 | 30.26823 | 83 ft | 6 kts | 17° |
| 2026-05-05 09:29 | 59.80334 | 30.26844 | 86 ft | 7 kts | 17° |
| 2026-05-05 09:29 | 59.80382 | 30.26888 | 83 ft | 8 kts | 54° |
| 2026-05-05 09:29 | 59.80369 | 30.27042 | 84 ft | 14 kts | 107° |
| 2026-05-05 09:30 | 59.80335 | 30.27269 | 82 ft | 20 kts | 107° |
| 2026-05-05 09:30 | 59.80290 | 30.27572 | 84 ft | 26 kts | 107° |
| 2026-05-05 09:30 | 59.80239 | 30.27914 | 83 ft | 25 kts | 107° |
| 2026-05-05 09:30 | 59.80192 | 30.28226 | 82 ft | 23 kts | 107° |
| 2026-05-05 09:31 | 59.80149 | 30.28510 | 79 ft | 20 kts | 106° |
| 2026-05-05 09:31 | 59.80112 | 30.28765 | 77 ft | 18 kts | 106° |
| 2026-05-05 09:31 | 59.80069 | 30.29043 | 74 ft | 24 kts | 107° |
| 2026-05-05 09:31 | 59.80018 | 30.29387 | 79 ft | 27 kts | 106° |
| 2026-05-05 09:32 | 59.79964 | 30.29746 | 71 ft | 27 kts | 107° |
| 2026-05-05 09:32 | 59.79935 | 30.29970 | 76 ft | 11 kts | 94° |
| 2026-05-05 09:32 | 59.79964 | 30.30086 | 68 ft | 9 kts | 46° |
| 2026-05-05 09:32 | 59.80012 | 30.30186 | 71 ft | 13 kts | 47° |
| 2026-05-05 09:33 | 59.80079 | 30.30286 | 73 ft | 12 kts | 8° |
| 2026-05-05 09:33 | 59.80127 | 30.30198 | 75 ft | 10 kts | 289° |
| 2026-05-05 09:33 | 59.80167 | 30.29924 | 74 ft | 48 kts | 286° |
| 2026-05-05 09:33 | 59.80323 | 30.28884 | 74 ft | 109 kts | 287° |
| 2026-05-05 09:34 | 59.80592 | 30.27101 | 87 ft | 156 kts | 286° |
| 2026-05-05 09:34 | 59.80908 | 30.24968 | 577 ft | 162 kts | 284° |
| 2026-05-05 09:34 | 59.81230 | 30.22845 | 1377 ft | 160 kts | 280° |
| 2026-05-05 09:34 | 59.81558 | 30.20624 | 1765 ft | 178 kts | 281° |
| 2026-05-05 09:35 | 59.81919 | 30.18131 | 2045 ft | 198 kts | 282° |
| 2026-05-05 09:35 | 59.82737 | 30.12546 | 3271 ft | 214 kts | 282° |
| 2026-05-05 09:35 | 59.83162 | 30.09684 | 4031 ft | 216 kts | 282° |
| 2026-05-05 09:36 | 59.83589 | 30.06814 | 4809 ft | 218 kts | 282° |
| 2026-05-05 09:36 | 59.84017 | 30.03923 | 5609 ft | 217 kts | 282° |
| 2026-05-05 09:36 | 59.84482 | 30.01076 | 6446 ft | 218 kts | 291° |
| 2026-05-05 09:36 | 59.85586 | 29.98905 | 7164 ft | 239 kts | 328° |
| 2026-05-05 09:37 | 59.87298 | 29.98429 | 7880 ft | 261 kts | 357° |
| 2026-05-05 09:37 | 59.89094 | 29.99164 | 8606 ft | 272 kts | 8° |
| 2026-05-05 09:37 | 59.90897 | 30.00445 | 9323 ft | 282 kts | 20° |
| 2026-05-05 09:37 | 59.92406 | 30.03115 | 9936 ft | 302 kts | 53° |
| 2026-05-05 09:38 | 59.93220 | 30.07018 | 10524 ft | 310 kts | 82° |
| 2026-05-05 09:38 | 59.93139 | 30.11271 | 11123 ft | 307 kts | 109° |
| 2026-05-05 09:38 | 59.92581 | 30.15392 | 11749 ft | 309 kts | 111° |
| 2026-05-05 09:38 | 59.91918 | 30.19478 | 12352 ft | 309 kts | 120° |
| 2026-05-05 09:39 | 59.91006 | 30.23512 | 12524 ft | 330 kts | 121° |
| 2026-05-05 09:39 | 59.90016 | 30.27807 | 12697 ft | 350 kts | 121° |
| 2026-05-05 09:39 | 59.89103 | 30.32387 | 13200 ft | 363 kts | 110° |
| 2026-05-05 09:39 | 59.88631 | 30.37422 | 13546 ft | 382 kts | 97° |
| 2026-05-05 09:40 | 59.88479 | 30.42845 | 13641 ft | 401 kts | 95° |
| 2026-05-05 09:40 | 59.88326 | 30.48502 | 13789 ft | 418 kts | 96° |
| 2026-05-05 09:40 | 59.88159 | 30.54395 | 13912 ft | 434 kts | 96° |
| 2026-05-05 09:40 | 59.87979 | 30.60488 | 14034 ft | 448 kts | 96° |
| 2026-05-05 09:41 | 59.87789 | 30.66737 | 14326 ft | 456 kts | 96° |
| 2026-05-05 09:41 | 59.87599 | 30.72980 | 14727 ft | 460 kts | 96° |
| 2026-05-05 09:41 | 59.87466 | 30.77287 | 15023 ft | 462 kts | 96° |